Time;durP1;ratioP1;P1;durP2;ratioP2;P2;SDS_P1;SDS_P2;PMS_P1;PMS_P2;Temp;Humidity;BMP_temperature;BMP_pressure;BME280_temperature;BME280_humidity;BME280_pressure;Samples;Min_cycle;Max_cycle;Signal;HPM_P1;HPM_P2
2022/07/30 00:02:17;;;;;;;;;;;;;;;28.61;41.18;99520.06;4297146;33;19984;-83
2022/07/30 00:04:45;;;;;;;;;;;;;;;28.65;41.13;99516.22;4297618;33;19984;-82
2022/07/30 00:07:11;;;;;;;;;;;;;;;28.64;41.21;99533.19;4298969;33;20043;-82
2022/07/30 00:09:38;;;;;;;;;;;;;;;28.56;41.61;99527.50;4302060;33;20759;-82
2022/07/30 00:12:05;;;;;;;;;;;;;;;28.59;41.41;99527.31;4297675;33;19984;-82
2022/07/30 00:14:33;;;;;;;;;;;;;;;28.56;41.52;99537.28;4296252;33;19976;-83
2022/07/30 00:17:01;;;;;;;;;;;;;;;28.43;42.03;99540.72;4300753;33;20408;-85
2022/07/30 00:19:29;;;;;;;;;;;;;;;28.44;41.95;99541.56;4300093;33;19992;-83
2022/07/30 00:21:57;;;;;;;;;;;;;;;28.49;41.92;99532.34;4311796;33;20280;-84
2022/07/30 00:24:23;;;;;;;;;;;;;;;28.40;42.13;99526.72;4308560;33;19986;-83
2022/07/30 00:26:50;;;;;;;;;;;;;;;28.20;42.58;99531.44;4303812;33;19977;-83
2022/07/30 00:29:17;;;;;;;;;;;;;;;28.40;42.09;99526.72;4302725;33;19999;-83
2022/07/30 00:31:44;;;;;;;;;;;;;;;28.29;42.36;99532.69;4299067;33;20023;-83
2022/07/30 00:34:11;;;;;;;;;;;;;;;28.40;41.94;99532.03;4296863;33;19969;-83
2022/07/30 00:36:38;;;;;;;;;;;;;;;28.21;42.47;99527.87;4305450;33;20416;-82
2022/07/30 00:39:05;;;;;;;;;;;;;;;28.44;41.97;99517.62;4296820;33;19996;-82
2022/07/30 00:41:32;;;;;;;;;;;;;;;28.21;42.33;99521.69;4300922;33;20493;-82
2022/07/30 00:43:59;;;;;;;;;;;;;;;28.13;42.51;99516.81;4306920;33;19972;-83
2022/07/30 00:46:27;;;;;;;;;;;;;;;28.11;42.57;99509.88;4301272;33;20507;-82
2022/07/30 00:48:54;;;;;;;;;;;;;;;28.25;42.15;99518.72;4297126;33;20477;-83
2022/07/30 00:51:21;;;;;;;;;;;;;;;28.36;41.92;99514.53;4298577;33;20035;-83
2022/07/30 00:53:48;;;;;;;;;;;;;;;28.16;42.22;99513.97;4303790;33;20063;-82
2022/07/30 00:56:15;;;;;;;;;;;;;;;28.29;41.92;99514.91;4299450;33;20312;-82
2022/07/30 00:58:42;;;;;;;;;;;;;;;28.14;42.36;99509.69;4303158;33;20036;-83
2022/07/30 01:01:10;;;;;;;;;;;;;;;27.88;42.83;99514.78;4297536;33;20331;-83
2022/07/30 01:03:37;;;;;;;;;;;;;;;28.05;42.44;99517.31;4297185;33;20307;-82
2022/07/30 01:06:03;;;;;;;;;;;;;;;28.09;42.33;99511.78;4299907;33;19976;-82
2022/07/30 01:08:30;;;;;;;;;;;;;;;27.96;42.68;99517.00;4302041;33;19997;-83
2022/07/30 01:10:57;;;;;;;;;;;;;;;27.83;43.09;99521.37;4298620;33;20035;-83
2022/07/30 01:13:24;;;;;;;;;;;;;;;27.84;43.04;99523.06;4287593;33;20032;-83
2022/07/30 01:15:52;;;;;;;;;;;;;;;27.89;42.93;99526.28;4296963;33;20008;-83
2022/07/30 01:18:19;;;;;;;;;;;;;;;27.96;42.89;99527.66;4300907;33;20031;-83
2022/07/30 01:20:55;;;;;;;;;;;;;;;28.01;42.73;99525.56;4304494;33;20011;-82
2022/07/30 01:23:25;;;;;;;;;;;;;;;28.17;42.58;99515.66;4307979;33;19980;-83
2022/07/30 01:26:03;;;;;;;;;;;;;;;28.01;42.90;99520.22;4276751;33;20003;-83
2022/07/30 01:28:40;;;;;;;;;;;;;;;28.01;43.08;99514.91;4295995;33;19984;-83
2022/07/30 01:31:07;;;;;;;;;;;;;;;28.09;42.95;99515.31;4296998;33;20032;-83
2022/07/30 01:33:36;;;;;;;;;;;;;;;28.01;43.18;99520.22;4303846;33;19980;-83
2022/07/30 01:36:03;;;;;;;;;;;;;;;27.81;43.53;99508.16;4295477;33;20040;-83
2022/07/30 01:38:31;;;;;;;;;;;;;;;27.99;43.14;99532.78;4302207;33;19984;-83
2022/07/30 01:41:01;;;;;;;;;;;;;;;28.02;43.00;99527.28;4305272;33;20002;-83
2022/07/30 01:43:28;;;;;;;;;;;;;;;27.86;43.68;99523.84;4298029;33;20010;-82
2022/07/30 01:45:55;;;;;;;;;;;;;;;27.90;43.42;99517.38;4304825;33;20032;-82
2022/07/30 01:48:22;;;;;;;;;;;;;;;28.00;43.08;99521.19;4270400;33;20053;-83
2022/07/30 01:50:51;;;;;;;;;;;;;;;27.93;43.45;99511.88;4263533;33;20482;-82
2022/07/30 01:53:20;;;;;;;;;;;;;;;28.02;43.13;99511.31;4264672;33;19978;-83
2022/07/30 01:55:47;;;;;;;;;;;;;;;27.71;44.06;99502.50;4264638;33;19993;-83
2022/07/30 01:58:15;;;;;;;;;;;;;;;27.88;43.59;99508.63;4261477;33;20064;-82
2022/07/30 02:00:43;;;;;;;;;;;;;;;28.04;43.12;99499.59;4274730;33;19997;-82
2022/07/30 02:03:10;;;;;;;;;;;;;;;27.91;43.54;99498.66;4282368;33;19973;-82
2022/07/30 02:05:37;;;;;;;;;;;;;;;28.05;43.25;99500.47;4282058;33;20064;-83
2022/07/30 02:08:15;;;;;;;;;;;;;;;27.81;43.94;99481.53;4280554;33;19980;-82
2022/07/30 02:11:03;;;;;;;;;;;;;;;27.81;43.85;99482.41;4269143;33;20357;-82
2022/07/30 02:13:30;;;;;;;;;;;;;;;27.75;44.02;99480.06;4271363;33;20056;-82
2022/07/30 02:16:12;;;;;;;;;;;;;;;27.76;43.99;99479.16;4276191;33;19985;-83
2022/07/30 02:18:43;;;;;;;;;;;;;;;27.94;43.59;99476.31;4266921;33;20308;-82
2022/07/30 02:21:12;;;;;;;;;;;;;;;27.80;44.09;99470.06;4269446;33;20034;-82
2022/07/30 02:23:40;;;;;;;;;;;;;;;27.41;45.19;99467.09;4271520;33;19999;-82
2022/07/30 02:26:11;;;;;;;;;;;;;;;27.42;45.06;99463.50;4268386;33;19993;-83
2022/07/30 02:28:38;;;;;;;;;;;;;;;27.64;44.56;99457.75;4264714;33;19993;-82
2022/07/30 02:31:06;;;;;;;;;;;;;;;27.62;44.65;99454.31;4274906;33;20984;-82
2022/07/30 02:33:43;;;;;;;;;;;;;;;27.69;44.24;99445.88;4266514;33;19996;-83
2022/07/30 02:36:14;;;;;;;;;;;;;;;27.59;44.67;99439.41;4267103;33;20471;-83
2022/07/30 02:38:42;;;;;;;;;;;;;;;27.65;44.36;99439.03;4279253;33;20056;-83
2022/07/30 02:41:11;;;;;;;;;;;;;;;27.65;44.43;99447.00;4273611;33;19989;-83
2022/07/30 02:43:39;;;;;;;;;;;;;;;27.52;44.79;99443.38;4276892;33;19965;-84
2022/07/30 02:46:07;;;;;;;;;;;;;;;27.43;45.12;99450.09;4268258;33;19977;-84
2022/07/30 02:48:37;;;;;;;;;;;;;;;27.65;44.40;99444.34;4273744;33;20853;-83
2022/07/30 02:51:04;;;;;;;;;;;;;;;27.62;44.60;99449.00;4266591;33;20009;-84
2022/07/30 02:53:31;;;;;;;;;;;;;;;27.60;44.72;99446.44;4273029;33;19991;-83
2022/07/30 02:55:59;;;;;;;;;;;;;;;27.40;45.13;99444.13;4266877;33;20411;-83
2022/07/30 02:58:25;;;;;;;;;;;;;;;27.60;44.67;99443.78;4267339;33;20336;-83
2022/07/30 03:00:52;;;;;;;;;;;;;;;27.54;44.88;99447.66;4272393;33;20080;-83
2022/07/30 03:03:20;;;;;;;;;;;;;;;27.49;44.91;99446.22;4269781;33;20035;-82
2022/07/30 03:05:48;;;;;;;;;;;;;;;27.49;45.04;99451.53;4267731;33;19989;-82
2022/07/30 03:08:15;;;;;;;;;;;;;;;27.54;44.90;99452.13;4267935;33;20053;-82
2022/07/30 03:10:46;;;;;;;;;;;;;;;27.43;45.35;99449.25;4275356;33;19989;-83
2022/07/30 03:13:13;;;;;;;;;;;;;;;27.39;45.31;99443.25;4282320;33;19995;-83
2022/07/30 03:15:45;;;;;;;;;;;;;;;27.40;45.16;99444.97;4282821;33;19993;-82
2022/07/30 03:18:12;;;;;;;;;;;;;;;27.42;45.23;99447.56;4284093;33;20003;-82
2022/07/30 03:20:39;;;;;;;;;;;;;;;27.47;45.23;99440.12;4281658;33;20343;-82
2022/07/30 03:23:06;;;;;;;;;;;;;;;27.10;46.03;99437.00;4275800;33;19977;-83
2022/07/30 03:25:33;;;;;;;;;;;;;;;27.43;45.19;99433.31;4267882;33;20315;-83
2022/07/30 03:28:01;;;;;;;;;;;;;;;27.36;45.38;99438.97;4287994;33;20022;-84
2022/07/30 03:30:28;;;;;;;;;;;;;;;27.41;45.36;99440.50;4287480;33;20083;-82
2022/07/30 03:32:55;;;;;;;;;;;;;;;27.27;45.72;99438.66;4273888;33;20283;-83
2022/07/30 03:35:23;;;;;;;;;;;;;;;27.46;45.15;99438.44;4267324;33;20335;-83
2022/07/30 03:37:53;;;;;;;;;;;;;;;27.33;45.41;99444.47;4267650;33;20075;-82
2022/07/30 03:40:21;;;;;;;;;;;;;;;27.35;45.27;99441.75;4299548;33;20822;-83
2022/07/30 03:42:48;;;;;;;;;;;;;;;27.34;45.47;99437.34;4304204;33;19980;-83
2022/07/30 03:45:15;;;;;;;;;;;;;;;27.28;45.47;99435.94;4297181;33;20135;-84
2022/07/30 03:47:42;;;;;;;;;;;;;;;26.75;46.80;99442.53;4297234;33;19995;-83
2022/07/30 03:50:11;;;;;;;;;;;;;;;27.20;45.67;99438.19;4301975;33;19980;-84
2022/07/30 03:52:40;;;;;;;;;;;;;;;27.30;45.53;99439.34;4298543;33;20004;-83
2022/07/30 03:55:10;;;;;;;;;;;;;;;27.32;45.46;99437.47;4298400;33;20346;-85
2022/07/30 03:57:51;;;;;;;;;;;;;;;27.32;45.47;99437.47;4305633;33;19999;-84
2022/07/30 04:00:19;;;;;;;;;;;;;;;27.21;45.92;99439.88;4290143;33;20071;-84
2022/07/30 04:02:46;;;;;;;;;;;;;;;27.29;45.64;99442.97;4304291;33;20020;-84
2022/07/30 04:05:14;;;;;;;;;;;;;;;27.02;46.28;99439.22;4296539;33;19981;-84
2022/07/30 04:07:41;;;;;;;;;;;;;;;27.08;46.34;99439.72;4298492;33;20035;-84
2022/07/30 04:10:12;;;;;;;;;;;;;;;26.73;47.34;99439.09;4300006;33;20351;-84
2022/07/30 04:12:40;;;;;;;;;;;;;;;27.01;46.69;99437.53;4305128;33;20028;-83
2022/07/30 04:15:07;;;;;;;;;;;;;;;27.25;45.78;99441.44;4297922;33;19984;-84
2022/07/30 04:17:56;;;;;;;;;;;;;;;27.10;46.06;99442.31;4296246;33;19984;-84
2022/07/30 04:20:25;;;;;;;;;;;;;;;26.99;46.64;99437.59;4295967;33;20378;-83
2022/07/30 04:22:52;;;;;;;;;;;;;;;27.03;46.51;99440.94;4296130;33;20060;-83
2022/07/30 04:25:19;;;;;;;;;;;;;;;27.16;46.28;99449.94;4294974;33;20063;-83
2022/07/30 04:27:50;;;;;;;;;;;;;;;26.96;47.31;99450.19;4295135;33;20075;-83
2022/07/30 04:30:34;;;;;;;;;;;;;;;27.09;46.67;99451.19;4296719;33;19988;-83
2022/07/30 04:33:01;;;;;;;;;;;;;;;26.93;46.91;99461.00;4295039;33;20779;-83
2022/07/30 04:35:34;;;;;;;;;;;;;;;26.95;46.89;99465.28;4303479;33;19992;-83
2022/07/30 04:38:18;;;;;;;;;;;;;;;27.14;46.47;99475.75;4295595;33;19984;-84
2022/07/30 04:40:46;;;;;;;;;;;;;;;27.18;46.42;99476.41;4299734;33;19992;-83
2022/07/30 04:43:13;;;;;;;;;;;;;;;27.19;46.28;99468.37;4306101;33;19976;-84
2022/07/30 04:45:40;;;;;;;;;;;;;;;27.01;46.63;99472.06;4300834;33;20049;-84
2022/07/30 04:48:07;;;;;;;;;;;;;;;27.10;46.69;99479.50;4290416;33;20060;-83
2022/07/30 04:50:37;;;;;;;;;;;;;;;27.05;46.88;99479.75;4301396;33;19996;-83
2022/07/30 04:53:05;;;;;;;;;;;;;;;27.09;46.85;99494.59;4302814;33;20051;-84
2022/07/30 04:55:34;;;;;;;;;;;;;;;27.18;46.78;99490.56;4298196;33;19984;-83
2022/07/30 04:58:01;;;;;;;;;;;;;;;27.19;46.51;99478.16;4297310;33;20518;-85
2022/07/30 05:00:28;;;;;;;;;;;;;;;27.36;46.18;99481.50;4303931;33;20051;-84
2022/07/30 05:02:59;;;;;;;;;;;;;;;27.40;46.11;99482.19;4296261;33;20041;-82
2022/07/30 05:05:26;;;;;;;;;;;;;;;27.46;46.04;99489.78;4296017;33;20022;-83
2022/07/30 05:07:53;;;;;;;;;;;;;;;27.34;46.43;99488.72;4296657;33;20739;-84
2022/07/30 05:10:20;;;;;;;;;;;;;;;27.29;46.37;99496.13;4299724;33;19981;-82
2022/07/30 05:12:47;;;;;;;;;;;;;;;27.31;46.54;99499.56;4301741;33;19997;-81
2022/07/30 05:15:14;;;;;;;;;;;;;;;27.35;46.39;99497.56;4298312;33;19985;-83
2022/07/30 05:17:42;;;;;;;;;;;;;;;27.47;45.79;99493.31;4303460;33;20678;-82
2022/07/30 05:20:08;;;;;;;;;;;;;;;27.51;45.46;99485.06;4301622;33;19984;-83
2022/07/30 05:22:38;;;;;;;;;;;;;;;27.46;46.12;99491.59;4306795;33;20370;-82
2022/07/30 05:25:09;;;;;;;;;;;;;;;27.48;45.81;99493.22;4301061;33;19981;-83
2022/07/30 05:27:42;;;;;;;;;;;;;;;27.44;46.44;99488.16;4298991;33;20349;-84
2022/07/30 05:30:10;;;;;;;;;;;;;;;27.67;46.00;99494.81;4302250;33;19980;-84
2022/07/30 05:32:42;;;;;;;;;;;;;;;27.11;46.69;99491.81;4296981;33;20341;-82
2022/07/30 05:35:12;;;;;;;;;;;;;;;27.54;46.13;99495.53;4303913;33;20040;-81
2022/07/30 05:37:39;;;;;;;;;;;;;;;27.54;46.05;99494.69;4297127;33;20000;-83
2022/07/30 05:40:06;;;;;;;;;;;;;;;27.54;46.21;99494.69;4296792;33;19992;-83
2022/07/30 05:42:34;;;;;;;;;;;;;;;27.53;46.02;99492.94;4304976;33;20003;-84
2022/07/30 05:45:01;;;;;;;;;;;;;;;27.36;46.34;99492.16;4287517;33;20460;-83
2022/07/30 05:47:29;;;;;;;;;;;;;;;27.44;46.59;99493.50;4298794;33;19984;-85
2022/07/30 05:49:56;;;;;;;;;;;;;;;27.55;46.39;99496.38;4304101;33;19998;-83
2022/07/30 05:52:29;;;;;;;;;;;;;;;27.65;45.89;99502.84;4299912;33;20489;-84
2022/07/30 05:54:59;;;;;;;;;;;;;;;27.36;46.67;99507.25;4300662;33;19988;-82
2022/07/30 05:57:28;;;;;;;;;;;;;;;27.40;46.77;99502.59;4304212;33;20523;-82
2022/07/30 05:59:56;;;;;;;;;;;;;;;27.46;46.46;99502.25;4297329;33;20028;-82
2022/07/30 06:02:23;;;;;;;;;;;;;;;27.24;47.22;99502.62;4294998;33;20697;-83
2022/07/30 06:04:51;;;;;;;;;;;;;;;27.47;47.02;99498.63;4305450;33;19988;-82
2022/07/30 06:07:18;;;;;;;;;;;;;;;27.40;47.06;99507.91;4299992;33;19992;-84
2022/07/30 06:09:44;;;;;;;;;;;;;;;27.54;46.41;99510.63;4300644;33;19977;-81
2022/07/30 06:12:12;;;;;;;;;;;;;;;27.58;46.55;99517.47;4303476;33;19984;-80
2022/07/30 06:14:39;;;;;;;;;;;;;;;27.48;46.36;99518.97;4310510;33;20039;-84
2022/07/30 06:17:09;;;;;;;;;;;;;;;27.54;46.29;99515.94;4144830;33;5087592;-86
2022/07/30 06:19:37;;;;;;;;;;;;;;;27.47;47.17;99525.22;4306620;33;20322;-85
2022/07/30 06:22:03;;;;;;;;;;;;;;;27.67;46.58;99516.06;4298033;33;19973;-85
2022/07/30 06:24:35;;;;;;;;;;;;;;;27.86;45.92;99521.19;4296796;33;20016;-84
2022/07/30 06:27:02;;;;;;;;;;;;;;;28.01;45.38;99517.56;4298373;33;20363;-84
2022/07/30 06:29:30;;;;;;;;;;;;;;;27.98;45.42;99521.28;4303098;33;19998;-84
2022/07/30 06:31:56;;;;;;;;;;;;;;;28.08;45.01;99526.91;4301894;33;20003;-83
2022/07/30 06:34:24;;;;;;;;;;;;;;;28.08;45.77;99531.34;4310971;33;19984;-83
2022/07/30 06:36:51;;;;;;;;;;;;;;;28.32;45.22;99531.66;4311820;33;20018;-83
2022/07/30 06:39:18;;;;;;;;;;;;;;;28.52;44.53;99525.97;4314552;33;19988;-84
2022/07/30 06:42:06;;;;;;;;;;;;;;;29.05;42.65;99528.84;4307681;33;20028;-83
2022/07/30 06:44:37;;;;;;;;;;;;;;;28.85;43.63;99528.28;4308048;33;19984;-85
2022/07/30 06:47:05;;;;;;;;;;;;;;;29.08;43.10;99528.63;4313527;33;19998;-86
2022/07/30 06:49:34;;;;;;;;;;;;;;;29.16;42.91;99532.53;4306195;33;19988;-84
2022/07/30 06:52:01;;;;;;;;;;;;;;;29.17;43.24;99534.22;4301104;33;20023;-85
2022/07/30 06:54:28;;;;;;;;;;;;;;;29.13;43.28;99529.19;4302900;33;19989;-86
2022/07/30 06:56:56;;;;;;;;;;;;;;;29.20;42.73;99523.34;4307260;33;20039;-85
2022/07/30 06:59:23;;;;;;;;;;;;;;;29.10;43.50;99521.37;4303727;33;19983;-86
2022/07/30 07:01:53;;;;;;;;;;;;;;;29.41;42.86;99525.53;4309792;33;19987;-86
2022/07/30 07:04:20;;;;;;;;;;;;;;;29.74;41.61;99518.91;4309295;33;19984;-83
2022/07/30 07:06:47;;;;;;;;;;;;;;;29.97;42.09;99518.19;4304280;33;19988;-82
2022/07/30 07:09:14;;;;;;;;;;;;;;;30.17;41.39;99513.28;4301106;33;19989;-86
2022/07/30 07:11:41;;;;;;;;;;;;;;;30.32;41.54;99517.56;4307479;33;20037;-86
2022/07/30 07:14:08;;;;;;;;;;;;;;;30.58;41.35;99508.53;4302651;33;20003;-89
2022/07/30 07:16:36;;;;;;;;;;;;;;;30.77;40.11;99515.25;4289430;33;19992;-89
2022/07/30 07:19:05;;;;;;;;;;;;;;;30.88;40.51;99515.31;4288597;33;20028;-89
2022/07/30 07:21:33;;;;;;;;;;;;;;;31.08;39.84;99510.31;4297792;33;19980;-88
2022/07/30 07:24:01;;;;;;;;;;;;;;;31.42;39.55;99509.50;4300311;33;19992;-87
2022/07/30 07:26:30;;;;;;;;;;;;;;;31.55;38.40;99503.25;4292420;33;20381;-82
2022/07/30 07:28:57;;;;;;;;;;;;;;;31.63;39.13;99498.16;4286797;33;19984;-87
2022/07/30 07:31:31;;;;;;;;;;;;;;;32.03;37.76;99493.25;4286800;33;20307;-87
2022/07/30 07:34:18;;;;;;;;;;;;;;;32.01;37.44;99489.00;4288130;33;20044;-82
2022/07/30 07:36:45;;;;;;;;;;;;;;;32.10;37.05;99512.38;4292500;33;20019;-90
2022/07/30 07:39:11;;;;;;;;;;;;;;;31.68;37.86;99522.72;4287102;33;20386;-91
2022/07/30 07:41:41;;;;;;;;;;;;;;;31.28;38.94;99525.72;4293590;33;20048;-87
2022/07/30 07:44:15;;;;;;;;;;;;;;;31.11;38.41;99526.13;4294572;33;19981;-85
2022/07/30 07:46:42;;;;;;;;;;;;;;;30.87;39.95;99524.31;4286380;33;20315;-82
2022/07/30 07:49:09;;;;;;;;;;;;;;;30.88;39.15;99526.00;4284661;33;19992;-85
2022/07/30 07:51:37;;;;;;;;;;;;;;;30.65;40.69;99526.78;4290189;33;19981;-83
2022/07/30 07:54:15;;;;;;;;;;;;;;;30.58;41.61;99529.91;4283437;33;20005;-82
2022/07/30 07:56:50;;;;;;;;;;;;;;;30.31;42.15;99537.19;4283721;33;20068;-81
2022/07/30 07:59:23;;;;;;;;;;;;;;;30.38;42.17;99538.50;4285686;33;20007;-85
2022/07/30 08:02:03;;;;;;;;;;;;;;;30.35;41.82;99539.56;4296568;33;20037;-83
2022/07/30 08:04:36;;;;;;;;;;;;;;;30.27;41.64;99535.72;4295596;33;19981;-83
2022/07/30 08:07:06;;;;;;;;;;;;;;;30.02;41.43;99548.06;4298717;33;19992;-84
2022/07/30 08:09:36;;;;;;;;;;;;;;;30.09;42.38;99546.72;4304823;33;19996;-84
2022/07/30 08:12:11;;;;;;;;;;;;;;;30.06;42.30;99549.59;4280531;33;19988;-83
2022/07/30 08:14:40;;;;;;;;;;;;;;;30.18;41.60;99552.34;4296178;33;19996;-85
2022/07/30 08:17:11;;;;;;;;;;;;;;;30.12;43.15;99554.50;4299186;33;20051;-86
2022/07/30 08:19:39;;;;;;;;;;;;;;;29.43;44.04;99560.97;4304035;33;20040;-84
2022/07/30 08:22:06;;;;;;;;;;;;;;;29.71;45.28;99560.00;4295963;33;19999;-81
2022/07/30 08:24:33;;;;;;;;;;;;;;;29.79;44.87;99556.81;4297768;33;20036;-84
2022/07/30 08:27:00;;;;;;;;;;;;;;;29.76;44.59;99565.03;4305745;33;20000;-86
2022/07/30 08:29:28;;;;;;;;;;;;;;;29.71;44.61;99564.47;4297768;33;20004;-89
2022/07/30 08:31:55;;;;;;;;;;;;;;;29.97;43.69;99560.91;4298945;33;20323;-81
2022/07/30 08:34:23;;;;;;;;;;;;;;;29.68;45.43;99568.22;4302235;33;19981;-84
2022/07/30 08:36:53;;;;;;;;;;;;;;;29.59;45.88;99577.66;4297847;33;19993;-82
2022/07/30 08:39:20;;;;;;;;;;;;;;;29.78;45.36;99577.31;4297721;33;20003;-82
2022/07/30 08:41:46;;;;;;;;;;;;;;;29.62;46.37;99580.16;4302082;33;20002;-87
2022/07/30 08:44:15;;;;;;;;;;;;;;;29.50;46.88;99567.59;4298594;33;19988;-84
2022/07/30 08:46:42;;;;;;;;;;;;;;;29.15;48.21;99578.78;4299858;33;20018;-80
2022/07/30 08:49:14;;;;;;;;;;;;;;;29.24;47.49;99572.00;4306003;33;20042;-86
2022/07/30 08:51:42;;;;;;;;;;;;;;;29.28;47.58;99567.31;4305142;33;19981;-84
2022/07/30 08:54:10;;;;;;;;;;;;;;;29.10;48.12;99578.25;4305181;33;20687;-84
2022/07/30 08:56:37;;;;;;;;;;;;;;;29.20;47.98;99576.69;4301255;33;20000;-82
2022/07/30 08:59:05;;;;;;;;;;;;;;;29.15;47.41;99584.09;4305291;33;20000;-85
2022/07/30 09:01:32;;;;;;;;;;;;;;;28.33;50.12;99590.13;4299357;33;20004;-85
2022/07/30 09:03:59;;;;;;;;;;;;;;;28.67;48.66;99596.06;4302341;33;19985;-82
2022/07/30 09:06:26;;;;;;;;;;;;;;;28.98;47.15;99592.31;4306997;33;20055;-78
2022/07/30 09:08:53;;;;;;;;;;;;;;;28.65;48.19;99595.28;4307939;33;19989;-80
2022/07/30 09:11:20;;;;;;;;;;;;;;;28.64;47.84;99598.91;4293940;33;19981;-79
2022/07/30 09:13:49;;;;;;;;;;;;;;;28.59;47.95;99596.56;4306282;33;20342;-79
2022/07/30 09:16:22;;;;;;;;;;;;;;;28.40;48.42;99595.94;4311793;33;20040;-79
2022/07/30 09:18:50;;;;;;;;;;;;;;;28.40;48.51;99585.31;4312184;33;19995;-79
2022/07/30 09:21:18;;;;;;;;;;;;;;;28.20;49.45;99590.00;4306394;33;20686;-80
2022/07/30 09:23:55;;;;;;;;;;;;;;;28.27;48.46;99586.06;4307461;33;20043;-79
2022/07/30 09:26:24;;;;;;;;;;;;;;;28.32;48.18;99576.91;4310792;33;20285;-79
2022/07/30 09:28:54;;;;;;;;;;;;;;;27.95;49.37;99584.44;4303487;33;19988;-78
2022/07/30 09:31:23;;;;;;;;;;;;;;;27.69;50.14;99584.16;4304564;33;19980;-79
2022/07/30 09:33:56;;;;;;;;;;;;;;;27.56;50.27;99584.03;4311008;33;19998;-79
2022/07/30 09:36:35;;;;;;;;;;;;;;;27.72;49.81;99594.63;4311588;33;19981;-79
2022/07/30 09:39:03;;;;;;;;;;;;;;;27.63;50.02;99605.78;4309360;33;19988;-80
2022/07/30 09:41:36;;;;;;;;;;;;;;;27.63;50.54;99616.44;4307813;33;19988;-81
2022/07/30 09:44:06;;;;;;;;;;;;;;;27.30;53.57;99646.66;4303568;33;20000;-78
2022/07/30 09:46:39;;;;;;;;;;;;;;;26.31;57.39;99668.75;4302001;33;20271;-80
2022/07/30 09:49:14;;;;;;;;;;;;;;;26.62;58.37;99651.28;4306781;33;20011;-79
2022/07/30 09:51:41;;;;;;;;;;;;;;;27.24;54.25;99612.47;4306505;33;20035;-80
2022/07/30 09:54:45;;;;;;;;;;;;;;;27.09;55.60;99578.72;4007219;33;10013174;-81
2022/07/30 09:57:18;;;;;;;;;;;;;;;26.65;58.48;99574.09;4296106;33;19977;-80
2022/07/30 09:59:56;;;;;;;;;;;;;;;26.68;57.27;99581.91;4309394;33;20007;-82
2022/07/30 10:02:30;;;;;;;;;;;;;;;26.51;58.04;99581.94;4307278;33;20059;-83
2022/07/30 10:05:12;;;;;;;;;;;;;;;26.65;56.71;99580.28;4311756;33;20287;-80
2022/07/30 10:07:48;;;;;;;;;;;;;;;26.70;57.04;99572.03;4303979;33;20304;-79
2022/07/30 10:10:18;;;;;;;;;;;;;;;26.50;56.99;99569.63;4305385;33;20044;-77
2022/07/30 10:12:45;;;;;;;;;;;;;;;26.58;58.17;99572.69;4309130;33;19992;-80
2022/07/30 10:15:14;;;;;;;;;;;;;;;26.41;59.06;99582.41;4306112;33;19972;-78
2022/07/30 10:17:42;;;;;;;;;;;;;;;26.38;59.00;99587.88;4306884;33;20365;-78
2022/07/30 10:20:10;;;;;;;;;;;;;;;26.55;58.29;99591.47;4310348;33;20815;-80
2022/07/30 10:22:40;;;;;;;;;;;;;;;26.55;60.14;99583.53;4310742;33;20049;-78
2022/07/30 10:25:20;;;;;;;;;;;;;;;26.53;59.97;99586.25;4308498;33;20093;-77
2022/07/30 10:27:53;;;;;;;;;;;;;;;26.71;59.77;99595.03;4311464;33;20003;-79
2022/07/30 10:30:24;;;;;;;;;;;;;;;26.92;59.89;99602.75;4311760;33;19980;-79
2022/07/30 10:32:53;;;;;;;;;;;;;;;26.83;59.67;99593.47;4305500;33;19984;-78
2022/07/30 10:35:20;;;;;;;;;;;;;;;26.87;59.31;99595.88;4301784;33;19980;-77
2022/07/30 10:38:06;;;;;;;;;;;;;;;26.98;59.76;99602.41;4298831;33;19980;-77
2022/07/30 10:40:34;;;;;;;;;;;;;;;26.95;59.12;99607.88;4292506;33;20327;-77
2022/07/30 10:43:25;;;;;;;;;;;;;;;26.84;58.82;99606.69;4298962;33;19984;-80
2022/07/30 10:46:02;;;;;;;;;;;;;;;26.88;60.13;99605.56;4272813;33;19973;-78
2022/07/30 10:48:34;;;;;;;;;;;;;;;26.95;59.28;99602.56;4304354;33;19988;-80
2022/07/30 10:51:00;;;;;;;;;;;;;;;27.08;58.95;99603.59;4311050;33;19972;-80
2022/07/30 10:53:32;;;;;;;;;;;;;;;27.10;58.51;99601.72;4310707;33;19984;-83
2022/07/30 10:56:14;;;;;;;;;;;;;;;27.05;57.80;99601.12;4306441;33;19976;-77
2022/07/30 10:59:00;;;;;;;;;;;;;;;27.22;59.68;99590.44;4304216;33;20028;-81
2022/07/30 11:01:47;;;;;;;;;;;;;;;27.19;59.11;99590.63;4296314;33;20280;-78
2022/07/30 11:04:25;;;;;;;;;;;;;;;27.16;59.34;99585.47;4295153;33;20279;-78
2022/07/30 11:07:22;;;;;;;;;;;;;;;27.21;59.82;99583.41;4302955;33;19969;-78
2022/07/30 11:09:53;;;;;;;;;;;;;;;27.12;59.51;99575.91;4308545;33;20000;-77
2022/07/30 11:12:41;;;;;;;;;;;;;;;27.34;57.60;99557.81;4299267;33;20337;-77
2022/07/30 11:15:11;;;;;;;;;;;;;;;27.22;58.26;99555.00;4310442;33;20004;-78
2022/07/30 11:17:58;;;;;;;;;;;;;;;27.17;58.69;99546.47;4305100;33;19984;-79
2022/07/30 11:20:25;;;;;;;;;;;;;;;27.09;59.75;99536.22;4300104;33;20275;-78
2022/07/30 11:22:52;;;;;;;;;;;;;;;27.29;58.89;99533.31;4300267;33;19996;-77
2022/07/30 11:25:26;;;;;;;;;;;;;;;27.32;59.08;99527.84;4294929;33;19985;-77
2022/07/30 11:28:34;;;;;;;;;;;;;;;27.41;58.89;99536.19;4293987;33;20020;-78
2022/07/30 11:31:01;;;;;;;;;;;;;;;27.40;59.44;99529.19;4289204;33;19985;-77
2022/07/30 11:33:36;;;;;;;;;;;;;;;27.45;59.17;99524.47;4293928;33;19988;-77
2022/07/30 11:36:05;;;;;;;;;;;;;;;27.54;59.38;99526.59;4300134;33;20414;-77
2022/07/30 11:38:55;;;;;;;;;;;;;;;27.57;58.32;99529.91;4287660;33;20047;-78
2022/07/30 11:41:32;;;;;;;;;;;;;;;27.54;57.91;99522.13;4292374;33;20015;-77
2022/07/30 11:44:24;;;;;;;;;;;;;;;27.67;56.69;99527.56;4295307;33;19981;-77
2022/07/30 11:46:50;;;;;;;;;;;;;;;27.68;59.02;99523.94;4292098;33;20001;-77
2022/07/30 11:49:17;;;;;;;;;;;;;;;28.05;55.42;99521.78;4295028;33;20012;-78
2022/07/30 11:51:45;;;;;;;;;;;;;;;27.74;58.01;99518.28;4305708;33;20020;-77
2022/07/30 11:54:11;;;;;;;;;;;;;;;27.92;55.72;99520.78;4300913;33;20067;-79
2022/07/30 11:56:48;;;;;;;;;;;;;;;27.67;58.12;99510.75;4297141;33;19988;-78
2022/07/30 11:59:15;;;;;;;;;;;;;;;27.57;57.66;99510.47;4291257;33;19989;-80
2022/07/30 12:01:42;;;;;;;;;;;;;;;27.73;57.01;99505.06;4293980;33;19989;-78
2022/07/30 12:04:09;;;;;;;;;;;;;;;27.88;57.50;99503.31;4307467;33;19984;-77
2022/07/30 12:06:43;;;;;;;;;;;;;;;28.04;54.10;99501.41;4292376;33;20003;-76
2022/07/30 12:09:10;;;;;;;;;;;;;;;28.04;57.58;99498.75;4252811;33;19985;-77
2022/07/30 12:11:37;;;;;;;;;;;;;;;27.99;56.48;99498.19;4268461;33;19974;-76
2022/07/30 12:14:04;;;;;;;;;;;;;;;27.98;54.59;99493.81;4267495;33;20897;-77
2022/07/30 12:16:32;;;;;;;;;;;;;;;27.88;54.85;99487.34;4261575;33;19981;-76
2022/07/30 12:19:05;;;;;;;;;;;;;;;27.71;55.41;99481.22;4254911;33;20049;-77
2022/07/30 12:21:35;;;;;;;;;;;;;;;28.03;53.11;99481.09;3683623;33;19658531;-80
2022/07/30 12:24:11;;;;;;;;;;;;;;;27.36;56.65;99475.34;4275982;33;19977;-77
2022/07/30 12:26:38;;;;;;;;;;;;;;;27.47;56.27;99472.03;4267434;33;19985;-76
2022/07/30 12:29:06;;;;;;;;;;;;;;;27.50;55.37;99466.53;4268814;33;19989;-77
2022/07/30 12:31:32;;;;;;;;;;;;;;;27.39;55.44;99463.69;4270450;33;20083;-77
2022/07/30 12:34:04;;;;;;;;;;;;;;;27.25;56.31;99472.44;4276753;33;20004;-77
2022/07/30 12:36:32;;;;;;;;;;;;;;;27.61;55.70;99466.75;4279779;33;19981;-77
2022/07/30 12:38:59;;;;;;;;;;;;;;;27.57;54.15;99473.22;4280931;33;20775;-78
2022/07/30 12:41:43;;;;;;;;;;;;;;;27.62;55.81;99471.12;4275083;33;20339;-78
2022/07/30 12:44:10;;;;;;;;;;;;;;;27.89;55.54;99467.75;4281745;33;20001;-79
2022/07/30 12:46:40;;;;;;;;;;;;;;;28.26;52.24;99472.50;4280998;33;19976;-79
2022/07/30 12:49:07;;;;;;;;;;;;;;;28.21;52.40;99477.28;4278453;33;20005;-79
2022/07/30 12:51:50;;;;;;;;;;;;;;;28.22;52.09;99471.00;4257223;33;19993;-80
2022/07/30 12:54:18;;;;;;;;;;;;;;;28.32;51.23;99470.44;4281215;33;20414;-79
2022/07/30 12:56:58;;;;;;;;;;;;;;;28.08;54.80;99479.00;4290426;33;19968;-79
2022/07/30 12:59:26;;;;;;;;;;;;;;;28.07;53.34;99479.09;4285728;33;20323;-78
2022/07/30 13:01:54;;;;;;;;;;;;;;;28.19;51.59;99471.19;4294108;33;20106;-79